createdAt,value
2024-01-19T00:01:01.615Z,33.80
2024-01-19T00:03:28.963Z,35.47
2024-01-19T00:05:57.730Z,32.15
2024-01-19T00:08:24.789Z,33.95
2024-01-19T00:10:51.941Z,38.38
2024-01-19T00:13:19.149Z,41.65
2024-01-19T00:15:46.665Z,36.25
2024-01-19T00:18:14.023Z,37.45
2024-01-19T00:20:41.588Z,42.30
2024-01-19T00:23:10.357Z,45.20
2024-01-19T00:25:37.316Z,40.38
2024-01-19T00:28:04.664Z,43.65
2024-01-19T00:30:31.835Z,42.85
2024-01-19T00:32:59.352Z,33.63
2024-01-19T00:35:26.786Z,38.55
2024-01-19T00:37:53.946Z,36.92
2024-01-19T00:40:22.512Z,42.42
2024-01-19T00:42:49.814Z,40.92
2024-01-19T00:45:17.086Z,45.35
2024-01-19T00:47:44.399Z,39.25
2024-01-19T00:50:11.928Z,38.78
2024-01-19T00:52:39.317Z,39.53
2024-01-19T00:55:06.962Z,40.50
2024-01-19T00:57:36.097Z,45.72
2024-01-19T01:00:03.425Z,39.88
2024-01-19T01:02:31.033Z,51.90
2024-01-19T01:04:58.709Z,49.60
2024-01-19T01:07:26.125Z,46.75
2024-01-19T01:09:53.071Z,57.30
2024-01-19T01:12:20.527Z,52.67
2024-01-19T01:14:49.346Z,45.08
2024-01-19T01:17:16.933Z,48.03
2024-01-19T01:19:44.377Z,47.65
2024-01-19T01:22:11.748Z,50.95
2024-01-19T01:24:39.150Z,43.33
2024-01-19T01:27:06.051Z,40.53
2024-01-19T01:29:33.347Z,48.42
2024-01-19T01:32:02.000Z,49.90
2024-01-19T01:34:29.103Z,47.58
2024-01-19T01:36:56.498Z,47.50
2024-01-19T01:39:23.646Z,47.03
2024-01-19T01:41:51.383Z,37.88
2024-01-19T01:44:18.688Z,40.75
2024-01-19T01:46:48.762Z,40.28
2024-01-19T01:49:18.709Z,41.57
2024-01-19T01:51:46.805Z,45.35
2024-01-19T01:54:14.841Z,44.28
2024-01-19T01:56:42.480Z,42.55
2024-01-19T01:59:09.878Z,46.60
2024-01-19T02:01:37.209Z,51.08
2024-01-19T02:04:04.629Z,51.75
2024-01-19T02:06:33.656Z,45.38
2024-01-19T02:09:00.996Z,44.78
2024-01-19T02:11:28.210Z,47.00
2024-01-19T02:13:55.149Z,45.83
2024-01-19T02:16:22.033Z,48.63
2024-01-19T02:18:49.091Z,49.08
2024-01-19T02:21:16.424Z,54.78
2024-01-19T02:23:47.991Z,54.22
2024-01-19T02:28:42.955Z,54.28
2024-01-19T02:31:09.830Z,59.45
2024-01-19T02:33:36.730Z,47.75
2024-01-19T02:36:03.811Z,49.00
2024-01-19T02:38:30.693Z,55.63
2024-01-19T02:40:57.611Z,47.17
2024-01-19T02:43:24.493Z,47.05
2024-01-19T02:45:52.744Z,56.95
2024-01-19T02:48:20.846Z,60.13
2024-01-19T02:50:48.985Z,54.03
2024-01-19T02:53:15.954Z,56.83
2024-01-19T02:55:42.842Z,55.45
2024-01-19T02:58:09.738Z,52.17
2024-01-19T03:00:36.626Z,57.80
2024-01-19T03:03:04.973Z,52.13
2024-01-19T03:05:32.050Z,56.65
2024-01-19T03:07:59.089Z,59.83
2024-01-19T03:10:25.961Z,55.47
2024-01-19T03:12:52.843Z,52.58
2024-01-19T03:15:19.730Z,54.28
2024-01-19T03:17:46.703Z,45.30
2024-01-19T03:20:15.081Z,47.35
2024-01-19T03:22:41.903Z,55.65
2024-01-19T03:25:08.822Z,57.78
2024-01-19T03:27:35.686Z,54.65
2024-01-19T03:30:02.593Z,56.97
2024-01-19T03:32:29.544Z,51.35
2024-01-19T03:34:56.432Z,56.45
2024-01-19T03:37:24.668Z,52.22
2024-01-19T03:39:51.595Z,43.47
2024-01-19T03:42:18.497Z,49.47
2024-01-19T03:44:45.409Z,51.97
2024-01-19T03:47:12.267Z,50.67
2024-01-19T03:49:40.217Z,65.68
2024-01-19T03:52:07.961Z,53.90
2024-01-19T03:54:37.306Z,48.47
2024-01-19T03:57:05.412Z,48.47
2024-01-19T03:59:32.602Z,52.22
2024-01-19T04:01:59.630Z,55.47
2024-01-19T04:04:26.919Z,50.78
2024-01-19T04:06:54.289Z,46.92
2024-01-19T04:09:21.170Z,64.00
2024-01-19T04:11:49.448Z,54.45
2024-01-19T04:14:16.337Z,54.08
2024-01-19T04:16:43.200Z,56.45
2024-01-19T04:19:10.194Z,51.03
2024-01-19T04:21:37.104Z,49.40
2024-01-19T04:24:04.028Z,56.90
2024-01-19T04:26:30.927Z,47.50
2024-01-19T04:28:59.171Z,50.55
2024-01-19T04:31:26.044Z,55.33
2024-01-19T04:33:54.641Z,54.65
2024-01-19T04:36:23.231Z,51.75
2024-01-19T04:38:50.130Z,53.08
2024-01-19T04:41:17.112Z,56.55
2024-01-19T04:43:44.008Z,51.83
2024-01-19T04:46:12.296Z,46.15
2024-01-19T04:48:39.223Z,48.42
2024-01-19T04:51:06.457Z,46.72
2024-01-19T04:53:33.488Z,60.05
2024-01-19T04:56:00.377Z,54.50
2024-01-19T04:58:27.259Z,53.53
2024-01-19T05:00:54.225Z,51.38
2024-01-19T05:03:22.648Z,51.75
2024-01-19T05:05:49.607Z,56.05
2024-01-19T05:08:16.486Z,58.45
2024-01-19T05:10:43.362Z,51.40
2024-01-19T05:13:10.206Z,49.95
2024-01-19T05:15:37.415Z,60.28
2024-01-19T05:18:05.060Z,69.38
2024-01-19T05:20:33.396Z,61.45
2024-01-19T05:23:00.276Z,75.25
2024-01-19T05:25:27.156Z,74.40
2024-01-19T05:27:54.066Z,61.97
2024-01-19T05:30:20.955Z,70.40
2024-01-19T05:32:47.987Z,74.75
2024-01-19T05:35:15.060Z,80.72
2024-01-19T05:37:43.329Z,69.30
2024-01-19T05:40:10.624Z,80.45
2024-01-19T05:42:37.482Z,67.88
2024-01-19T05:45:04.787Z,63.28
2024-01-19T05:47:31.722Z,68.30
2024-01-19T05:49:58.617Z,59.03
2024-01-19T05:52:25.501Z,75.40
2024-01-19T05:54:53.733Z,67.07
2024-01-19T05:57:20.590Z,63.10
2024-01-19T05:59:48.562Z,64.47
2024-01-19T06:02:15.468Z,67.35
2024-01-19T06:04:42.578Z,70.57
2024-01-19T06:07:09.454Z,77.32
2024-01-19T06:09:36.323Z,63.53
2024-01-19T06:12:04.821Z,59.38
2024-01-19T06:14:31.739Z,73.10
2024-01-19T06:16:58.626Z,66.45
2024-01-19T06:19:25.530Z,64.00
2024-01-19T06:21:52.418Z,61.65
2024-01-19T06:24:19.267Z,57.40
2024-01-19T06:26:46.597Z,62.67
2024-01-19T06:29:15.061Z,61.38
2024-01-19T06:31:45.242Z,65.90
2024-01-19T06:34:12.175Z,61.35
2024-01-19T06:36:39.142Z,59.85
2024-01-19T06:39:06.105Z,65.25
2024-01-19T06:41:33.065Z,56.50
2024-01-19T06:43:59.967Z,51.22
2024-01-19T06:46:28.182Z,58.85
2024-01-19T06:48:55.165Z,56.63
2024-01-19T06:51:22.123Z,57.63
2024-01-19T06:53:49.002Z,61.85
2024-01-19T06:56:15.909Z,55.70
2024-01-19T06:58:42.764Z,56.30
2024-01-19T07:01:09.726Z,54.70
2024-01-19T07:03:38.025Z,56.45
2024-01-19T07:06:05.162Z,60.25
2024-01-19T07:08:32.149Z,67.60
2024-01-19T07:10:59.035Z,56.95
2024-01-19T07:13:26.114Z,57.67
2024-01-19T07:15:53.015Z,50.95
2024-01-19T07:18:19.990Z,57.00
2024-01-19T07:20:48.322Z,67.32
2024-01-19T07:23:15.191Z,58.25
2024-01-19T07:25:42.056Z,55.78
2024-01-19T07:28:08.936Z,51.45
2024-01-19T07:30:38.864Z,45.35
2024-01-19T07:33:09.253Z,52.90
2024-01-19T07:35:40.028Z,59.90
2024-01-19T07:38:09.305Z,55.60
2024-01-19T07:40:36.169Z,59.20
2024-01-19T07:43:03.161Z,63.05
2024-01-19T07:45:30.839Z,65.45
2024-01-19T07:47:57.748Z,49.92
2024-01-19T07:50:24.681Z,49.38
2024-01-19T07:52:51.585Z,50.03
2024-01-19T07:55:19.828Z,44.65
2024-01-19T07:57:46.818Z,42.92
2024-01-19T08:00:14.047Z,46.03
2024-01-19T08:02:41.063Z,42.45
2024-01-19T08:05:08.089Z,37.72
2024-01-19T08:07:34.954Z,39.20
2024-01-19T08:10:01.977Z,36.85
2024-01-19T08:12:30.195Z,43.10
2024-01-19T08:14:57.149Z,41.28
2024-01-19T08:17:24.221Z,39.55
2024-01-19T08:19:51.157Z,42.88
2024-01-19T08:22:18.005Z,42.45
2024-01-19T08:24:44.863Z,36.05
2024-01-19T08:27:11.729Z,38.22
2024-01-19T08:29:39.969Z,36.28
2024-01-19T08:32:06.870Z,35.70
2024-01-19T08:34:33.773Z,32.55
2024-01-19T08:37:00.639Z,39.20
2024-01-19T08:39:27.569Z,36.95
2024-01-19T08:41:54.467Z,36.83
2024-01-19T08:44:21.357Z,52.83
2024-01-19T08:46:49.582Z,46.85
2024-01-19T08:49:16.488Z,47.38
2024-01-19T08:51:44.860Z,50.40
2024-01-19T08:54:12.870Z,46.45
2024-01-19T08:56:43.393Z,44.53
2024-01-19T08:59:16.466Z,51.33
2024-01-19T09:01:43.299Z,37.00
2024-01-19T09:04:11.631Z,38.05
2024-01-19T09:06:40.171Z,25.98
2024-01-19T09:09:10.699Z,30.17
2024-01-19T09:11:37.600Z,27.83
2024-01-19T09:14:04.450Z,30.95
2024-01-19T09:16:31.336Z,30.45
2024-01-19T09:18:58.372Z,26.25
2024-01-19T09:21:26.713Z,29.88
2024-01-19T09:23:53.579Z,28.48
2024-01-19T09:26:20.571Z,32.97
2024-01-19T09:28:47.594Z,29.60
2024-01-19T09:31:14.464Z,29.58
2024-01-19T09:33:41.517Z,24.83
2024-01-19T09:36:08.833Z,24.60
2024-01-19T09:38:37.188Z,24.52
2024-01-19T09:41:06.787Z,34.47
2024-01-19T09:43:34.487Z,31.58
2024-01-19T09:46:05.390Z,38.35
2024-01-19T09:48:35.619Z,40.33
2024-01-19T09:51:06.613Z,29.80
2024-01-19T09:53:36.430Z,31.17
2024-01-19T09:56:04.911Z,28.33
2024-01-19T09:58:31.820Z,30.55
2024-01-19T10:00:58.860Z,32.67
2024-01-19T10:03:27.033Z,32.75
2024-01-19T10:05:54.383Z,34.67
2024-01-19T10:08:21.806Z,37.47
2024-01-19T10:10:50.532Z,31.13
2024-01-19T10:13:18.763Z,29.30
2024-01-19T10:15:45.651Z,29.35
2024-01-19T10:18:12.879Z,25.55
2024-01-19T10:20:40.944Z,31.05
2024-01-19T10:23:18.635Z,27.85
2024-01-19T10:25:45.534Z,26.65
2024-01-19T10:28:28.390Z,23.80
2024-01-19T10:31:12.955Z,34.17
2024-01-19T10:33:47.912Z,32.08
2024-01-19T10:36:14.994Z,30.77
2024-01-19T10:38:41.911Z,33.53
2024-01-19T10:41:14.109Z,35.60
2024-01-19T10:43:40.971Z,30.48
2024-01-19T10:46:18.616Z,42.22
2024-01-19T10:48:45.610Z,38.13
2024-01-19T10:51:12.637Z,37.63
2024-01-19T10:53:39.580Z,37.47
2024-01-19T10:56:06.576Z,35.15
2024-01-19T10:58:33.689Z,32.00
2024-01-19T11:01:12.957Z,47.08
2024-01-19T11:03:41.387Z,31.05
2024-01-19T11:06:08.541Z,31.27
2024-01-19T11:08:35.493Z,23.83
2024-01-19T11:11:04.542Z,27.40
2024-01-19T11:13:34.366Z,36.42
2024-01-19T11:16:01.708Z,36.17
2024-01-19T11:18:28.716Z,35.38
2024-01-19T11:20:57.272Z,30.88
2024-01-19T11:23:24.475Z,33.78
2024-01-19T11:25:55.381Z,29.48
2024-01-19T11:28:23.513Z,27.85
2024-01-19T11:31:08.327Z,27.23
2024-01-19T11:33:35.450Z,28.80
2024-01-19T11:36:04.233Z,32.15
2024-01-19T11:38:43.925Z,26.15
2024-01-19T11:41:10.837Z,30.13
2024-01-19T11:43:38.697Z,28.85
2024-01-19T11:46:07.014Z,26.90
2024-01-19T11:48:41.479Z,27.75
2024-01-19T11:51:10.013Z,28.90
2024-01-19T11:53:55.503Z,28.17
2024-01-19T11:56:22.844Z,26.40
2024-01-19T11:58:49.767Z,27.60
2024-01-19T12:01:16.782Z,28.05
2024-01-19T12:03:43.787Z,23.55
2024-01-19T12:06:12.191Z,26.05
2024-01-19T12:08:39.182Z,31.55
2024-01-19T12:11:07.526Z,28.95
2024-01-19T12:13:35.710Z,27.10
2024-01-19T12:16:02.688Z,25.27
2024-01-19T12:18:29.737Z,23.83
2024-01-19T12:20:56.919Z,22.10
2024-01-19T12:23:25.293Z,26.48
2024-01-19T12:25:58.944Z,27.00
2024-01-19T12:28:25.986Z,21.45
2024-01-19T12:30:52.877Z,21.55
2024-01-19T12:33:20.664Z,26.88
2024-01-19T12:35:48.147Z,23.40
2024-01-19T12:38:15.609Z,22.95
2024-01-19T12:40:44.372Z,26.45
2024-01-19T12:43:11.288Z,26.42
2024-01-19T12:45:38.195Z,27.27
2024-01-19T12:48:10.131Z,26.05
2024-01-19T12:50:45.450Z,26.27
2024-01-19T12:53:14.780Z,22.80
2024-01-19T12:55:41.856Z,24.85
2024-01-19T12:58:10.143Z,24.60
2024-01-19T13:00:37.407Z,26.83
2024-01-19T13:03:04.853Z,24.20
2024-01-19T13:05:32.212Z,22.80
2024-01-19T13:08:00.665Z,22.02
2024-01-19T13:10:27.756Z,24.90
2024-01-19T13:13:07.582Z,24.05
2024-01-19T13:15:36.139Z,21.40
2024-01-19T13:18:06.405Z,26.65
2024-01-19T13:20:33.344Z,25.23
2024-01-19T13:23:00.312Z,22.77
2024-01-19T13:25:27.247Z,23.30
2024-01-19T13:27:55.815Z,24.27
2024-01-19T13:30:25.130Z,24.05
2024-01-19T13:32:53.525Z,21.35
2024-01-19T13:35:20.420Z,19.63
2024-01-19T13:37:47.412Z,19.73
2024-01-19T13:40:14.378Z,25.73
2024-01-19T13:42:41.241Z,18.40
2024-01-19T13:45:08.517Z,23.58
2024-01-19T13:47:35.454Z,19.92
2024-01-19T13:50:04.619Z,26.38
2024-01-19T13:52:31.547Z,26.25
2024-01-19T13:54:58.424Z,26.75
2024-01-19T13:57:25.282Z,29.23
2024-01-19T13:59:52.155Z,28.70
2024-01-19T14:02:19.257Z,28.33
2024-01-19T14:04:46.533Z,27.92
2024-01-19T14:07:15.051Z,24.77
2024-01-19T14:09:41.921Z,27.95
2024-01-19T14:12:09.081Z,27.05
2024-01-19T14:14:35.984Z,31.75
2024-01-19T14:17:03.105Z,26.10
2024-01-19T14:19:30.098Z,28.20
2024-01-19T14:21:57.011Z,33.20
2024-01-19T14:24:25.236Z,27.98
2024-01-19T14:26:52.106Z,31.92
2024-01-19T14:29:19.075Z,32.80
2024-01-19T14:31:46.015Z,36.20
2024-01-19T14:34:13.007Z,29.15
2024-01-19T14:36:40.147Z,28.90
2024-01-19T14:39:07.000Z,28.05
2024-01-19T14:41:35.276Z,29.23
2024-01-19T14:44:02.145Z,34.33
2024-01-19T14:46:29.110Z,42.28
2024-01-19T14:48:56.017Z,33.75
2024-01-19T14:51:23.350Z,36.30
2024-01-19T14:53:50.680Z,25.50
2024-01-19T14:56:17.877Z,32.00
2024-01-19T14:58:46.229Z,33.75
2024-01-19T15:01:13.169Z,34.35
2024-01-19T15:03:40.072Z,35.15
2024-01-19T15:06:07.008Z,42.83
2024-01-19T15:08:33.933Z,36.22
2024-01-19T15:11:00.856Z,44.58
2024-01-19T15:13:27.785Z,32.97
2024-01-19T15:15:56.029Z,36.83
2024-01-19T15:18:25.742Z,38.97
2024-01-19T15:20:53.876Z,40.05
2024-01-19T15:23:20.726Z,36.20
2024-01-19T15:25:47.658Z,33.85
2024-01-19T15:28:14.524Z,30.35
2024-01-19T15:30:43.978Z,38.05
2024-01-19T15:33:13.175Z,31.38
2024-01-19T15:35:40.128Z,35.65
2024-01-19T15:38:07.186Z,31.83
2024-01-19T15:40:34.123Z,31.73
2024-01-19T15:43:01.014Z,29.83
2024-01-19T15:45:27.874Z,41.15
2024-01-19T15:47:56.850Z,35.53
2024-01-19T15:50:25.487Z,33.53
2024-01-19T15:52:52.487Z,33.20
2024-01-19T15:55:20.061Z,29.73
2024-01-19T15:57:47.117Z,28.30
2024-01-19T16:00:14.345Z,28.27
2024-01-19T16:02:41.218Z,28.63
2024-01-19T16:05:08.630Z,27.98
2024-01-19T16:07:37.123Z,24.85
2024-01-19T16:10:04.182Z,27.65
2024-01-19T16:12:31.033Z,26.90
2024-01-19T16:14:57.884Z,28.77
2024-01-19T16:17:24.793Z,25.98
2024-01-19T16:19:51.812Z,28.48
2024-01-19T16:22:18.772Z,27.25
2024-01-19T16:24:47.021Z,30.58
2024-01-19T16:27:13.883Z,27.42
2024-01-19T16:29:40.754Z,24.90
2024-01-19T16:32:07.870Z,23.95
2024-01-19T16:34:34.914Z,30.67
2024-01-19T16:37:01.814Z,28.30
2024-01-19T16:39:28.747Z,26.95
2024-01-19T16:41:56.983Z,27.73
2024-01-19T16:44:24.026Z,28.15
2024-01-19T16:46:52.204Z,29.92
2024-01-19T16:49:19.152Z,29.33
2024-01-19T16:51:46.229Z,29.70
2024-01-19T16:54:13.137Z,27.90
2024-01-19T16:56:40.618Z,27.65
2024-01-19T16:59:08.971Z,22.98
2024-01-19T17:01:36.355Z,31.63
2024-01-19T17:04:03.404Z,31.63
2024-01-19T17:06:30.280Z,28.88
2024-01-19T17:08:57.185Z,36.72
2024-01-19T17:11:24.086Z,35.10
2024-01-19T17:13:51.034Z,45.78
2024-01-19T17:16:24.444Z,37.00
2024-01-19T17:18:52.280Z,29.75
2024-01-19T17:21:19.243Z,30.63
2024-01-19T17:23:46.880Z,30.48
2024-01-19T17:26:14.220Z,26.15
2024-01-19T17:28:41.274Z,29.60
2024-01-19T17:31:08.155Z,28.60
2024-01-19T17:33:36.820Z,26.50
2024-01-19T17:36:11.722Z,31.98
2024-01-19T17:38:38.698Z,29.73
2024-01-19T17:41:05.639Z,30.50
2024-01-19T17:43:33.123Z,31.35
2024-01-19T17:46:06.550Z,27.80
2024-01-19T17:48:33.451Z,34.88
2024-01-19T17:51:01.754Z,28.38
2024-01-19T17:53:28.647Z,30.70
2024-01-19T17:55:56.718Z,28.08
2024-01-19T17:58:23.648Z,29.40
2024-01-19T18:00:50.544Z,28.42
2024-01-19T18:03:17.449Z,36.10
2024-01-19T18:05:44.350Z,33.17
2024-01-19T18:08:13.349Z,29.08
2024-01-19T18:10:41.591Z,31.35
2024-01-19T18:13:08.539Z,30.17
2024-01-19T18:15:36.055Z,33.33
2024-01-19T18:18:03.331Z,27.70
2024-01-19T18:20:30.389Z,31.67
2024-01-19T18:22:57.474Z,31.90
2024-01-19T18:25:25.757Z,36.15
2024-01-19T18:27:52.684Z,36.10
2024-01-19T18:30:19.701Z,32.40
2024-01-19T18:32:48.815Z,36.17
2024-01-19T18:35:17.260Z,39.65
2024-01-19T18:37:44.270Z,36.20
2024-01-19T18:40:11.767Z,33.33
2024-01-19T18:42:40.036Z,34.05
2024-01-19T18:45:07.327Z,32.38
2024-01-19T18:47:34.201Z,39.33
2024-01-19T18:50:01.158Z,31.55
2024-01-19T18:52:28.606Z,40.63
2024-01-19T18:57:22.460Z,34.00
2024-01-19T18:59:51.332Z,34.03
2024-01-19T19:02:19.063Z,31.38
2024-01-19T19:04:46.245Z,31.20
2024-01-19T19:07:13.224Z,29.98
2024-01-19T19:09:40.365Z,32.35
2024-01-19T19:12:08.066Z,25.02
2024-01-19T19:14:34.952Z,33.63
2024-01-19T19:17:03.441Z,30.13
2024-01-19T19:19:30.608Z,33.03
2024-01-19T19:21:57.504Z,26.38
2024-01-19T19:24:24.582Z,27.08
2024-01-19T19:26:51.574Z,31.75
2024-01-19T19:29:18.478Z,36.17
2024-01-19T19:31:46.003Z,29.65
2024-01-19T19:34:14.378Z,36.70
2024-01-19T19:36:41.338Z,31.52
2024-01-19T19:39:08.187Z,27.77
2024-01-19T19:41:35.105Z,41.60
2024-01-19T19:44:02.011Z,41.13
2024-01-19T19:46:29.206Z,38.65
2024-01-19T19:48:58.058Z,27.90
2024-01-19T19:51:26.659Z,33.30
2024-01-19T19:53:53.530Z,41.03
2024-01-19T19:56:20.504Z,39.08
2024-01-19T19:58:47.400Z,36.17
2024-01-19T20:01:14.309Z,34.53
2024-01-19T20:03:41.267Z,29.73
2024-01-19T20:06:08.488Z,33.63
2024-01-19T20:08:37.218Z,32.63
2024-01-19T20:11:04.525Z,29.60
2024-01-19T20:13:31.604Z,32.55
2024-01-19T20:15:58.686Z,38.92
2024-01-19T20:18:25.693Z,38.15
2024-01-19T20:20:52.910Z,38.40
2024-01-19T20:23:20.480Z,35.65
2024-01-19T20:25:48.828Z,36.95
2024-01-19T20:28:15.870Z,38.70
2024-01-19T20:30:42.940Z,39.08
2024-01-19T20:33:10.125Z,41.95
2024-01-19T20:35:37.170Z,47.08
2024-01-19T20:38:04.371Z,34.78
2024-01-19T20:40:31.701Z,33.65
2024-01-19T20:43:00.189Z,44.40
2024-01-19T20:45:27.057Z,37.70
2024-01-19T20:47:54.031Z,35.08
2024-01-19T20:50:21.116Z,37.78
2024-01-19T20:52:48.088Z,34.60
2024-01-19T20:55:15.094Z,31.48
2024-01-19T20:57:42.123Z,36.72
2024-01-19T21:00:11.153Z,36.60
2024-01-19T21:02:38.108Z,38.80
2024-01-19T21:05:05.664Z,36.55
2024-01-19T21:07:33.282Z,39.17
2024-01-19T21:10:00.216Z,36.15
2024-01-19T21:12:27.412Z,43.78
2024-01-19T21:14:54.319Z,38.85
2024-01-19T21:17:22.564Z,33.80
2024-01-19T21:19:50.142Z,34.05
2024-01-19T21:22:17.337Z,41.40
2024-01-19T21:24:44.396Z,35.88
2024-01-19T21:27:11.282Z,41.38
2024-01-19T21:29:38.181Z,35.58
2024-01-19T21:32:05.466Z,35.67
2024-01-19T21:34:34.357Z,39.33
2024-01-19T21:37:01.264Z,39.40
2024-01-19T21:39:28.460Z,38.72
2024-01-19T21:41:55.945Z,33.92
2024-01-19T21:44:24.096Z,35.63
2024-01-19T21:46:51.561Z,35.78
2024-01-19T21:49:18.530Z,33.15
2024-01-19T21:51:46.821Z,35.83
2024-01-19T21:54:14.020Z,34.60
2024-01-19T21:56:41.313Z,38.80
2024-01-19T21:59:08.809Z,36.47
2024-01-19T22:01:35.818Z,36.20
2024-01-19T22:04:03.211Z,36.67
2024-01-19T22:06:30.461Z,37.33
2024-01-19T22:08:58.830Z,31.33
2024-01-19T22:11:26.064Z,47.25
2024-01-19T22:13:52.986Z,35.70
2024-01-19T22:16:22.454Z,33.75
2024-01-19T22:18:49.626Z,37.70
2024-01-19T22:21:16.971Z,38.42
2024-01-19T22:23:43.898Z,37.85
2024-01-19T22:26:12.272Z,31.90
2024-01-19T22:28:39.242Z,39.80
2024-01-19T22:31:07.843Z,43.80
2024-01-19T22:33:35.378Z,40.28
2024-01-19T22:36:08.092Z,41.63
2024-01-19T22:38:42.132Z,42.80
2024-01-19T22:41:09.386Z,41.58
2024-01-19T22:43:37.722Z,39.03
2024-01-19T22:46:04.684Z,36.28
2024-01-19T22:48:31.735Z,46.03
2024-01-19T22:50:59.356Z,42.38
2024-01-19T22:53:26.452Z,35.75
2024-01-19T22:55:53.365Z,40.03
2024-01-19T22:58:20.569Z,40.78
2024-01-19T23:00:49.110Z,31.67
2024-01-19T23:03:16.050Z,38.72
2024-01-19T23:05:43.045Z,37.10
2024-01-19T23:08:10.127Z,41.80
2024-01-19T23:10:37.182Z,36.60
2024-01-19T23:13:04.306Z,34.35
2024-01-19T23:15:31.393Z,35.75
2024-01-19T23:17:59.700Z,36.65
2024-01-19T23:20:26.879Z,33.30
2024-01-19T23:22:54.193Z,39.72
2024-01-19T23:25:27.336Z,32.58
2024-01-19T23:28:00.037Z,36.10
2024-01-19T23:30:27.281Z,38.65
2024-01-19T23:32:54.257Z,35.85
2024-01-19T23:35:22.674Z,41.42
2024-01-19T23:37:49.790Z,35.10
2024-01-19T23:40:17.677Z,37.58
2024-01-19T23:42:44.687Z,35.22
2024-01-19T23:45:11.784Z,32.40
2024-01-19T23:47:38.760Z,31.33
2024-01-19T23:50:06.364Z,32.78
2024-01-19T23:52:34.769Z,34.15
2024-01-19T23:55:01.676Z,33.28
2024-01-19T23:57:28.551Z,30.02
2024-01-19T23:59:55.455Z,31.15
